Tramper — PHAA — position and weather

sailwx.info

Track history (hours):
 
Tides and Currents Weather Stations Pressure Air Temp Water Temp Dewpoint Dewpoint Depression Visibility Wind Speed Wind Dir Waves Ship Positions

Tramper

Last reported at 2014-Jul-24 05:20 UTC. Time now 2014-Jul-24 17:45 UTC.
Position N 36°35' E 023°21'.

Length 101 m; beam 20 m.

Type: Cargo ship. MMSI: 245867000.

Date/timePositionNaut miles runAvg speedWind from/ knotsBaromVisibWave heightAir tempDewpointWater temp
2014-Jul-24 05:20N 36°35' E 023°21'1614.1
2014-Jul-24 04:11N 36°49' E 023°31'2914.7
2014-Jul-24 02:11N 37°14' E 023°51'914.8
2014-Jul-24 01:33N 37°21' E 023°57'1414.3
2014-Jul-24 00:33N 37°34' E 024°07'1414.1
2014-Jul-23 23:33N 37°45' E 024°17'1414.2
2014-Jul-23 22:33N 37°54' E 024°31'2613.2
2014-Jul-23 20:33N 38°17' E 024°48'1414.0
2014-Jul-23 19:33N 38°29' E 024°56'2813.8
2014-Jul-23 17:32N 38°54' E 025°12'3114.2
2014-Jul-23 15:20N 39°22' E 025°31'1113.6
2014-Jul-23 14:32N 39°31' E 025°37'1313.2
2014-Jul-23 13:33N 39°43' E 025°44'1413.9
2014-Jul-23 12:33N 39°56' E 025°52'99 7.6
2014-Jul-22 23:33N 40°47' E 027°44'1313.1
2014-Jul-22 22:33N 40°49' E 028°01'2713.1
2014-Jul-22 20:31N 40°53' E 028°35'1212.8
2014-Jul-22 19:33N 40°55' E 028°52'3 2.0
2014-Jul-22 18:15N 40°57' E 028°54'0 0.0
2014-Jul-22 17:27N 40°57' E 028°54'0 0.0
2014-Jul-22 15:33N 40°57' E 028°54'  
2014-Jul-18 12:31N 45°10' E 036°34'0 0.1
2014-Jul-18 11:28N 45°10' E 036°34'0 0.0
2014-Jul-17 12:31N 45°10' E 036°34'  
Track history (hours):
 
Tides and Currents Weather Stations Pressure Air Temp Water Temp Dewpoint Dewpoint Depression Visibility Wind Speed Wind Dir Waves Ship Positions

Tramper

Last reported at 2014-Jul-24 05:20 UTC. Time now 2014-Jul-24 17:45 UTC.
Position N 36°35' E 023°21'.

Length 101 m; beam 20 m.

Type: Cargo ship. MMSI: 245867000.

Date/timePositionNaut miles runAvg speedWind from/ knotsBaromVisibWave heightAir tempDewpointWater temp
2014-Jul-24 05:20N 36°35' E 023°21'1614.1
2014-Jul-24 04:11N 36°49' E 023°31'2914.7
2014-Jul-24 02:11N 37°14' E 023°51'914.8
2014-Jul-24 01:33N 37°21' E 023°57'1414.3
2014-Jul-24 00:33N 37°34' E 024°07'1414.1
2014-Jul-23 23:33N 37°45' E 024°17'1414.2
2014-Jul-23 22:33N 37°54' E 024°31'2613.2
2014-Jul-23 20:33N 38°17' E 024°48'1414.0
2014-Jul-23 19:33N 38°29' E 024°56'2813.8
2014-Jul-23 17:32N 38°54' E 025°12'3114.2
2014-Jul-23 15:20N 39°22' E 025°31'1113.6
2014-Jul-23 14:32N 39°31' E 025°37'1313.2
2014-Jul-23 13:33N 39°43' E 025°44'1413.9
2014-Jul-23 12:33N 39°56' E 025°52'99 7.6
2014-Jul-22 23:33N 40°47' E 027°44'1313.1
2014-Jul-22 22:33N 40°49' E 028°01'2713.1
2014-Jul-22 20:31N 40°53' E 028°35'1212.8
2014-Jul-22 19:33N 40°55' E 028°52'3 2.0
2014-Jul-22 18:15N 40°57' E 028°54'0 0.0
2014-Jul-22 17:27N 40°57' E 028°54'0 0.0
2014-Jul-22 15:33N 40°57' E 028°54'  
2014-Jul-18 12:31N 45°10' E 036°34'0 0.1
2014-Jul-18 11:28N 45°10' E 036°34'0 0.0
2014-Jul-17 12:31N 45°10' E 036°34'  

Dump ship's entire track history